sensor_id;sensor_type;location;lat;lon;timestamp;P1;durP1;ratioP1;P2;durP2;ratioP2
10403;SDS011;5248;47.374;8.486;2023-03-15T00:00:47;0.40;;;0.40;;
10403;SDS011;5248;47.374;8.486;2023-03-15T00:03:14;0.40;;;0.30;;
10403;SDS011;5248;47.374;8.486;2023-03-15T00:05:42;0.40;;;0.40;;
10403;SDS011;5248;47.374;8.486;2023-03-15T00:08:09;0.57;;;0.30;;
10403;SDS011;5248;47.374;8.486;2023-03-15T00:10:38;0.30;;;0.30;;
10403;SDS011;5248;47.374;8.486;2023-03-15T00:13:05;0.23;;;0.23;;
10403;SDS011;5248;47.374;8.486;2023-03-15T00:15:31;0.97;;;0.30;;
10403;SDS011;5248;47.374;8.486;2023-03-15T00:17:58;0.30;;;0.30;;
10403;SDS011;5248;47.374;8.486;2023-03-15T00:20:27;0.33;;;0.33;;
10403;SDS011;5248;47.374;8.486;2023-03-15T00:22:55;0.40;;;0.40;;
10403;SDS011;5248;47.374;8.486;2023-03-15T00:25:21;0.30;;;0.30;;
10403;SDS011;5248;47.374;8.486;2023-03-15T00:27:48;0.50;;;0.50;;
10403;SDS011;5248;47.374;8.486;2023-03-15T00:30:14;1.23;;;0.57;;
10403;SDS011;5248;47.374;8.486;2023-03-15T00:32:41;0.53;;;0.53;;
10403;SDS011;5248;47.374;8.486;2023-03-15T00:35:08;0.77;;;0.53;;
10403;SDS011;5248;47.374;8.486;2023-03-15T00:37:36;0.40;;;0.40;;
10403;SDS011;5248;47.374;8.486;2023-03-15T00:40:05;0.60;;;0.40;;
10403;SDS011;5248;47.374;8.486;2023-03-15T00:42:33;0.67;;;0.50;;
10403;SDS011;5248;47.374;8.486;2023-03-15T00:44:59;0.70;;;0.70;;
10403;SDS011;5248;47.374;8.486;2023-03-15T00:47:27;0.50;;;0.50;;
10403;SDS011;5248;47.374;8.486;2023-03-15T00:49:53;2.17;;;0.60;;
10403;SDS011;5248;47.374;8.486;2023-03-15T00:52:19;1.00;;;0.67;;
10403;SDS011;5248;47.374;8.486;2023-03-15T00:54:49;0.53;;;0.53;;
10403;SDS011;5248;47.374;8.486;2023-03-15T00:57:18;0.60;;;0.60;;
10403;SDS011;5248;47.374;8.486;2023-03-15T00:59:45;1.93;;;0.90;;
10403;SDS011;5248;47.374;8.486;2023-03-15T01:02:11;0.60;;;0.60;;
10403;SDS011;5248;47.374;8.486;2023-03-15T01:04:38;0.80;;;0.80;;
10403;SDS011;5248;47.374;8.486;2023-03-15T01:07:04;0.87;;;0.80;;
10403;SDS011;5248;47.374;8.486;2023-03-15T01:09:31;1.30;;;1.10;;
10403;SDS011;5248;47.374;8.486;2023-03-15T01:11:57;1.00;;;1.00;;
10403;SDS011;5248;47.374;8.486;2023-03-15T01:14:25;1.40;;;1.10;;
10403;SDS011;5248;47.374;8.486;2023-03-15T01:16:52;0.80;;;0.80;;
10403;SDS011;5248;47.374;8.486;2023-03-15T01:19:18;1.40;;;1.23;;
10403;SDS011;5248;47.374;8.486;2023-03-15T01:21:45;1.00;;;0.90;;
10403;SDS011;5248;47.374;8.486;2023-03-15T01:24:12;1.43;;;1.33;;
10403;SDS011;5248;47.374;8.486;2023-03-15T01:26:40;1.23;;;1.13;;
10403;SDS011;5248;47.374;8.486;2023-03-15T01:29:07;1.60;;;1.30;;
10403;SDS011;5248;47.374;8.486;2023-03-15T01:31:35;0.80;;;0.77;;
10403;SDS011;5248;47.374;8.486;2023-03-15T01:34:01;1.40;;;1.20;;
10403;SDS011;5248;47.374;8.486;2023-03-15T01:36:28;1.90;;;1.00;;
10403;SDS011;5248;47.374;8.486;2023-03-15T01:38:54;2.20;;;1.27;;
10403;SDS011;5248;47.374;8.486;2023-03-15T01:41:23;1.07;;;1.07;;
10403;SDS011;5248;47.374;8.486;2023-03-15T01:43:51;1.20;;;1.20;;
10403;SDS011;5248;47.374;8.486;2023-03-15T01:46:20;1.57;;;1.47;;
10403;SDS011;5248;47.374;8.486;2023-03-15T01:48:54;1.37;;;1.27;;
10403;SDS011;5248;47.374;8.486;2023-03-15T01:51:25;2.17;;;1.40;;
10403;SDS011;5248;47.374;8.486;2023-03-15T01:53:54;1.43;;;1.37;;
10403;SDS011;5248;47.374;8.486;2023-03-15T01:56:22;1.17;;;1.10;;
10403;SDS011;5248;47.374;8.486;2023-03-15T01:58:50;1.63;;;1.10;;
10403;SDS011;5248;47.374;8.486;2023-03-15T02:01:17;1.43;;;1.23;;
10403;SDS011;5248;47.374;8.486;2023-03-15T02:03:45;1.40;;;1.30;;
10403;SDS011;5248;47.374;8.486;2023-03-15T02:06:14;1.90;;;1.20;;
10403;SDS011;5248;47.374;8.486;2023-03-15T02:08:43;2.27;;;1.57;;
10403;SDS011;5248;47.374;8.486;2023-03-15T02:11:12;1.53;;;1.43;;
10403;SDS011;5248;47.374;8.486;2023-03-15T02:13:38;2.87;;;2.00;;
10403;SDS011;5248;47.374;8.486;2023-03-15T02:16:06;1.20;;;1.10;;
10403;SDS011;5248;47.374;8.486;2023-03-15T02:18:33;1.30;;;1.23;;
10403;SDS011;5248;47.374;8.486;2023-03-15T02:21:06;1.90;;;1.20;;
10403;SDS011;5248;47.374;8.486;2023-03-15T02:23:38;2.73;;;1.87;;
10403;SDS011;5248;47.374;8.486;2023-03-15T02:26:08;2.10;;;1.10;;
10403;SDS011;5248;47.374;8.486;2023-03-15T02:28:40;1.37;;;1.30;;
10403;SDS011;5248;47.374;8.486;2023-03-15T02:31:07;1.47;;;1.37;;
10403;SDS011;5248;47.374;8.486;2023-03-15T02:33:34;1.53;;;1.33;;
10403;SDS011;5248;47.374;8.486;2023-03-15T02:36:06;1.37;;;1.27;;
10403;SDS011;5248;47.374;8.486;2023-03-15T02:38:35;1.10;;;1.10;;
10403;SDS011;5248;47.374;8.486;2023-03-15T02:41:02;1.57;;;1.33;;
10403;SDS011;5248;47.374;8.486;2023-03-15T02:43:29;1.57;;;1.47;;
10403;SDS011;5248;47.374;8.486;2023-03-15T02:45:58;1.73;;;1.40;;
10403;SDS011;5248;47.374;8.486;2023-03-15T02:48:24;1.60;;;1.50;;
10403;SDS011;5248;47.374;8.486;2023-03-15T02:50:51;1.53;;;1.40;;
10403;SDS011;5248;47.374;8.486;2023-03-15T02:53:18;1.80;;;1.60;;
10403;SDS011;5248;47.374;8.486;2023-03-15T02:55:44;1.57;;;1.47;;
10403;SDS011;5248;47.374;8.486;2023-03-15T02:58:11;1.83;;;1.63;;
10403;SDS011;5248;47.374;8.486;2023-03-15T03:00:37;1.50;;;1.40;;
10403;SDS011;5248;47.374;8.486;2023-03-15T03:03:05;1.60;;;1.50;;
10403;SDS011;5248;47.374;8.486;2023-03-15T03:05:32;2.57;;;1.47;;
10403;SDS011;5248;47.374;8.486;2023-03-15T03:07:59;2.20;;;1.43;;
10403;SDS011;5248;47.374;8.486;2023-03-15T03:10:27;1.37;;;1.27;;
10403;SDS011;5248;47.374;8.486;2023-03-15T03:12:56;1.73;;;1.63;;
10403;SDS011;5248;47.374;8.486;2023-03-15T03:15:22;1.57;;;1.47;;
10403;SDS011;5248;47.374;8.486;2023-03-15T03:17:49;1.70;;;1.60;;
10403;SDS011;5248;47.374;8.486;2023-03-15T03:20:19;1.60;;;1.50;;
10403;SDS011;5248;47.374;8.486;2023-03-15T03:22:45;2.13;;;1.43;;
10403;SDS011;5248;47.374;8.486;2023-03-15T03:25:12;1.70;;;1.60;;
10403;SDS011;5248;47.374;8.486;2023-03-15T03:27:38;2.13;;;1.93;;
10403;SDS011;5248;47.374;8.486;2023-03-15T03:30:06;1.57;;;1.30;;
10403;SDS011;5248;47.374;8.486;2023-03-15T03:32:33;1.80;;;1.70;;
10403;SDS011;5248;47.374;8.486;2023-03-15T03:35:00;1.53;;;1.43;;
10403;SDS011;5248;47.374;8.486;2023-03-15T03:37:28;1.90;;;1.53;;
10403;SDS011;5248;47.374;8.486;2023-03-15T03:39:55;1.60;;;1.43;;
10403;SDS011;5248;47.374;8.486;2023-03-15T03:42:21;1.67;;;1.50;;
10403;SDS011;5248;47.374;8.486;2023-03-15T03:44:48;1.63;;;1.43;;
10403;SDS011;5248;47.374;8.486;2023-03-15T03:47:15;1.50;;;1.40;;
10403;SDS011;5248;47.374;8.486;2023-03-15T03:49:41;1.33;;;1.23;;
10403;SDS011;5248;47.374;8.486;2023-03-15T03:52:08;1.40;;;1.23;;
10403;SDS011;5248;47.374;8.486;2023-03-15T03:54:36;2.73;;;1.70;;
10403;SDS011;5248;47.374;8.486;2023-03-15T03:57:02;1.63;;;1.50;;
10403;SDS011;5248;47.374;8.486;2023-03-15T03:59:29;1.67;;;1.40;;
10403;SDS011;5248;47.374;8.486;2023-03-15T04:01:56;3.83;;;1.83;;
10403;SDS011;5248;47.374;8.486;2023-03-15T04:04:23;2.40;;;2.00;;
10403;SDS011;5248;47.374;8.486;2023-03-15T04:06:50;2.00;;;1.70;;
10403;SDS011;5248;47.374;8.486;2023-03-15T04:09:18;2.10;;;1.90;;
10403;SDS011;5248;47.374;8.486;2023-03-15T04:11:47;1.97;;;1.87;;
10403;SDS011;5248;47.374;8.486;2023-03-15T04:14:13;1.47;;;1.37;;
10403;SDS011;5248;47.374;8.486;2023-03-15T04:16:40;2.30;;;1.60;;
10403;SDS011;5248;47.374;8.486;2023-03-15T04:19:06;3.50;;;1.67;;
10403;SDS011;5248;47.374;8.486;2023-03-15T04:21:33;1.73;;;1.10;;
10403;SDS011;5248;47.374;8.486;2023-03-15T04:24:01;2.10;;;1.30;;
10403;SDS011;5248;47.374;8.486;2023-03-15T04:26:28;0.93;;;0.90;;
10403;SDS011;5248;47.374;8.486;2023-03-15T04:28:57;1.53;;;1.33;;
10403;SDS011;5248;47.374;8.486;2023-03-15T04:31:24;1.03;;;0.93;;
10403;SDS011;5248;47.374;8.486;2023-03-15T04:33:51;1.03;;;1.03;;
10403;SDS011;5248;47.374;8.486;2023-03-15T04:36:18;0.70;;;0.70;;
10403;SDS011;5248;47.374;8.486;2023-03-15T04:38:44;2.13;;;1.07;;
10403;SDS011;5248;47.374;8.486;2023-03-15T04:41:11;1.10;;;1.00;;
10403;SDS011;5248;47.374;8.486;2023-03-15T04:43:37;1.17;;;0.90;;
10403;SDS011;5248;47.374;8.486;2023-03-15T04:46:06;1.93;;;0.77;;
10403;SDS011;5248;47.374;8.486;2023-03-15T04:48:32;1.73;;;1.00;;
10403;SDS011;5248;47.374;8.486;2023-03-15T04:50:59;2.20;;;0.80;;
10403;SDS011;5248;47.374;8.486;2023-03-15T04:53:25;0.73;;;0.63;;
10403;SDS011;5248;47.374;8.486;2023-03-15T04:55:52;0.90;;;0.90;;
10403;SDS011;5248;47.374;8.486;2023-03-15T04:58:19;1.93;;;1.13;;
10403;SDS011;5248;47.374;8.486;2023-03-15T05:00:45;1.47;;;1.10;;
10403;SDS011;5248;47.374;8.486;2023-03-15T05:03:13;1.27;;;0.90;;
10403;SDS011;5248;47.374;8.486;2023-03-15T05:05:39;1.33;;;0.90;;
10403;SDS011;5248;47.374;8.486;2023-03-15T05:08:06;0.90;;;0.83;;
10403;SDS011;5248;47.374;8.486;2023-03-15T05:10:32;2.23;;;1.10;;
10403;SDS011;5248;47.374;8.486;2023-03-15T05:12:59;1.30;;;1.20;;
10403;SDS011;5248;47.374;8.486;2023-03-15T05:15:25;0.70;;;0.70;;
10403;SDS011;5248;47.374;8.486;2023-03-15T05:17:52;2.13;;;1.10;;
10403;SDS011;5248;47.374;8.486;2023-03-15T05:20:21;3.73;;;1.17;;
10403;SDS011;5248;47.374;8.486;2023-03-15T05:22:49;1.93;;;1.47;;
10403;SDS011;5248;47.374;8.486;2023-03-15T05:25:17;3.87;;;2.67;;
10403;SDS011;5248;47.374;8.486;2023-03-15T05:27:44;1.17;;;1.07;;
10403;SDS011;5248;47.374;8.486;2023-03-15T05:30:12;1.53;;;1.10;;
10403;SDS011;5248;47.374;8.486;2023-03-15T05:32:39;1.00;;;0.97;;
10403;SDS011;5248;47.374;8.486;2023-03-15T05:35:09;1.90;;;1.50;;
10403;SDS011;5248;47.374;8.486;2023-03-15T05:37:37;1.50;;;1.40;;
10403;SDS011;5248;47.374;8.486;2023-03-15T05:40:04;3.43;;;0.90;;
10403;SDS011;5248;47.374;8.486;2023-03-15T05:42:33;2.73;;;1.07;;
10403;SDS011;5248;47.374;8.486;2023-03-15T05:44:59;1.27;;;1.10;;
10403;SDS011;5248;47.374;8.486;2023-03-15T05:47:26;1.90;;;0.80;;
10403;SDS011;5248;47.374;8.486;2023-03-15T05:49:52;0.77;;;0.77;;
10403;SDS011;5248;47.374;8.486;2023-03-15T05:52:19;1.30;;;1.20;;
10403;SDS011;5248;47.374;8.486;2023-03-15T05:54:49;1.73;;;1.17;;
10403;SDS011;5248;47.374;8.486;2023-03-15T05:57:15;0.97;;;0.90;;
10403;SDS011;5248;47.374;8.486;2023-03-15T05:59:45;2.60;;;1.53;;
10403;SDS011;5248;47.374;8.486;2023-03-15T06:02:13;2.67;;;1.20;;
10403;SDS011;5248;47.374;8.486;2023-03-15T06:04:40;1.30;;;1.13;;
10403;SDS011;5248;47.374;8.486;2023-03-15T06:07:06;2.10;;;1.70;;
10403;SDS011;5248;47.374;8.486;2023-03-15T06:09:33;1.53;;;1.00;;
10403;SDS011;5248;47.374;8.486;2023-03-15T06:12:00;3.50;;;1.23;;
10403;SDS011;5248;47.374;8.486;2023-03-15T06:14:27;1.37;;;1.27;;
10403;SDS011;5248;47.374;8.486;2023-03-15T06:16:53;1.53;;;0.90;;
10403;SDS011;5248;47.374;8.486;2023-03-15T06:19:20;3.23;;;1.40;;
10403;SDS011;5248;47.374;8.486;2023-03-15T06:21:47;1.10;;;1.00;;
10403;SDS011;5248;47.374;8.486;2023-03-15T06:24:14;1.80;;;1.17;;
10403;SDS011;5248;47.374;8.486;2023-03-15T06:26:40;1.30;;;0.87;;
10403;SDS011;5248;47.374;8.486;2023-03-15T06:29:08;0.87;;;0.87;;
10403;SDS011;5248;47.374;8.486;2023-03-15T06:31:34;1.47;;;1.00;;
10403;SDS011;5248;47.374;8.486;2023-03-15T06:34:01;0.93;;;0.67;;
10403;SDS011;5248;47.374;8.486;2023-03-15T06:36:27;0.70;;;0.70;;
10403;SDS011;5248;47.374;8.486;2023-03-15T06:38:56;0.90;;;0.73;;
10403;SDS011;5248;47.374;8.486;2023-03-15T06:41:22;0.87;;;0.80;;
10403;SDS011;5248;47.374;8.486;2023-03-15T06:43:49;1.03;;;0.77;;
10403;SDS011;5248;47.374;8.486;2023-03-15T06:46:17;1.47;;;0.80;;
10403;SDS011;5248;47.374;8.486;2023-03-15T06:48:43;0.77;;;0.50;;
10403;SDS011;5248;47.374;8.486;2023-03-15T06:51:10;0.63;;;0.63;;
10403;SDS011;5248;47.374;8.486;2023-03-15T06:53:36;1.70;;;1.07;;
10403;SDS011;5248;47.374;8.486;2023-03-15T06:56:03;1.00;;;1.00;;
10403;SDS011;5248;47.374;8.486;2023-03-15T06:58:29;1.27;;;0.60;;
10403;SDS011;5248;47.374;8.486;2023-03-15T07:00:56;1.17;;;0.90;;
10403;SDS011;5248;47.374;8.486;2023-03-15T07:03:24;3.17;;;1.10;;
10403;SDS011;5248;47.374;8.486;2023-03-15T07:05:50;2.00;;;1.80;;
10403;SDS011;5248;47.374;8.486;2023-03-15T07:08:18;3.33;;;2.60;;
10403;SDS011;5248;47.374;8.486;2023-03-15T07:10:44;1.73;;;1.63;;
10403;SDS011;5248;47.374;8.486;2023-03-15T07:13:12;1.90;;;1.30;;
10403;SDS011;5248;47.374;8.486;2023-03-15T07:15:39;3.60;;;2.10;;
10403;SDS011;5248;47.374;8.486;2023-03-15T07:18:05;4.60;;;2.47;;
10403;SDS011;5248;47.374;8.486;2023-03-15T07:20:33;2.00;;;1.60;;
10403;SDS011;5248;47.374;8.486;2023-03-15T07:23:00;2.53;;;1.80;;
10403;SDS011;5248;47.374;8.486;2023-03-15T07:25:26;1.60;;;1.50;;
10403;SDS011;5248;47.374;8.486;2023-03-15T07:27:53;1.37;;;1.27;;
10403;SDS011;5248;47.374;8.486;2023-03-15T07:30:19;1.20;;;1.20;;
10403;SDS011;5248;47.374;8.486;2023-03-15T07:32:46;1.20;;;1.20;;
10403;SDS011;5248;47.374;8.486;2023-03-15T07:35:13;1.70;;;1.60;;
10403;SDS011;5248;47.374;8.486;2023-03-15T07:37:42;1.37;;;1.27;;
10403;SDS011;5248;47.374;8.486;2023-03-15T07:40:09;1.53;;;1.27;;
10403;SDS011;5248;47.374;8.486;2023-03-15T07:42:38;0.83;;;0.83;;
10403;SDS011;5248;47.374;8.486;2023-03-15T07:45:05;1.30;;;1.20;;
10403;SDS011;5248;47.374;8.486;2023-03-15T07:47:32;4.03;;;1.43;;
10403;SDS011;5248;47.374;8.486;2023-03-15T07:49:59;1.27;;;1.17;;
10403;SDS011;5248;47.374;8.486;2023-03-15T07:52:25;1.30;;;1.30;;
10403;SDS011;5248;47.374;8.486;2023-03-15T07:54:53;2.23;;;1.37;;
10403;SDS011;5248;47.374;8.486;2023-03-15T07:57:19;1.47;;;1.37;;
10403;SDS011;5248;47.374;8.486;2023-03-15T07:59:46;1.50;;;1.40;;
10403;SDS011;5248;47.374;8.486;2023-03-15T08:02:12;1.87;;;1.60;;
10403;SDS011;5248;47.374;8.486;2023-03-15T08:04:39;1.93;;;1.73;;
10403;SDS011;5248;47.374;8.486;2023-03-15T08:07:06;1.33;;;1.20;;
10403;SDS011;5248;47.374;8.486;2023-03-15T08:09:35;1.40;;;1.03;;
10403;SDS011;5248;47.374;8.486;2023-03-15T08:12:02;1.13;;;1.13;;
10403;SDS011;5248;47.374;8.486;2023-03-15T08:14:30;1.70;;;1.17;;
10403;SDS011;5248;47.374;8.486;2023-03-15T08:16:57;1.53;;;1.43;;
10403;SDS011;5248;47.374;8.486;2023-03-15T08:19:24;4.50;;;2.17;;
10403;SDS011;5248;47.374;8.486;2023-03-15T08:21:50;1.30;;;1.00;;
10403;SDS011;5248;47.374;8.486;2023-03-15T08:24:17;2.17;;;1.40;;
10403;SDS011;5248;47.374;8.486;2023-03-15T08:26:44;1.63;;;1.53;;
10403;SDS011;5248;47.374;8.486;2023-03-15T08:29:12;1.73;;;1.63;;
10403;SDS011;5248;47.374;8.486;2023-03-15T08:31:39;0.90;;;0.80;;
10403;SDS011;5248;47.374;8.486;2023-03-15T08:34:05;0.80;;;0.80;;
10403;SDS011;5248;47.374;8.486;2023-03-15T08:36:32;1.13;;;1.03;;
10403;SDS011;5248;47.374;8.486;2023-03-15T08:38:58;0.57;;;0.57;;
10403;SDS011;5248;47.374;8.486;2023-03-15T08:41:25;0.83;;;0.83;;
10403;SDS011;5248;47.374;8.486;2023-03-15T08:43:51;0.90;;;0.90;;
10403;SDS011;5248;47.374;8.486;2023-03-15T08:46:19;1.10;;;1.00;;
10403;SDS011;5248;47.374;8.486;2023-03-15T08:48:46;0.80;;;0.80;;
10403;SDS011;5248;47.374;8.486;2023-03-15T08:51:12;1.27;;;1.17;;
10403;SDS011;5248;47.374;8.486;2023-03-15T08:53:39;1.10;;;1.00;;
10403;SDS011;5248;47.374;8.486;2023-03-15T08:56:06;1.67;;;1.00;;
10403;SDS011;5248;47.374;8.486;2023-03-15T08:58:33;1.00;;;0.83;;
10403;SDS011;5248;47.374;8.486;2023-03-15T09:00:59;1.00;;;1.00;;
10403;SDS011;5248;47.374;8.486;2023-03-15T09:03:27;1.00;;;1.00;;
10403;SDS011;5248;47.374;8.486;2023-03-15T09:05:58;1.07;;;1.03;;
10403;SDS011;5248;47.374;8.486;2023-03-15T09:08:24;1.07;;;1.00;;
10403;SDS011;5248;47.374;8.486;2023-03-15T09:10:52;1.17;;;0.80;;
10403;SDS011;5248;47.374;8.486;2023-03-15T09:13:19;1.23;;;1.10;;
10403;SDS011;5248;47.374;8.486;2023-03-15T09:15:48;0.60;;;0.60;;
10403;SDS011;5248;47.374;8.486;2023-03-15T09:18:15;0.97;;;0.97;;
10403;SDS011;5248;47.374;8.486;2023-03-15T09:20:42;0.83;;;0.83;;
10403;SDS011;5248;47.374;8.486;2023-03-15T09:23:09;1.00;;;1.00;;
10403;SDS011;5248;47.374;8.486;2023-03-15T09:25:36;0.70;;;0.70;;
10403;SDS011;5248;47.374;8.486;2023-03-15T09:28:02;0.63;;;0.63;;
10403;SDS011;5248;47.374;8.486;2023-03-15T09:30:29;0.60;;;0.60;;
10403;SDS011;5248;47.374;8.486;2023-03-15T09:32:55;0.70;;;0.70;;
10403;SDS011;5248;47.374;8.486;2023-03-15T09:35:22;0.93;;;0.77;;
10403;SDS011;5248;47.374;8.486;2023-03-15T09:37:50;0.50;;;0.50;;
10403;SDS011;5248;47.374;8.486;2023-03-15T09:40:17;0.63;;;0.53;;
10403;SDS011;5248;47.374;8.486;2023-03-15T09:42:51;0.87;;;0.87;;
10403;SDS011;5248;47.374;8.486;2023-03-15T09:45:23;0.50;;;0.50;;
10403;SDS011;5248;47.374;8.486;2023-03-15T09:47:54;0.60;;;0.60;;
10403;SDS011;5248;47.374;8.486;2023-03-15T09:50:26;1.27;;;0.60;;
10403;SDS011;5248;47.374;8.486;2023-03-15T09:52:56;0.60;;;0.60;;
10403;SDS011;5248;47.374;8.486;2023-03-15T09:55:25;0.40;;;0.40;;
10403;SDS011;5248;47.374;8.486;2023-03-15T09:57:53;1.20;;;0.43;;
10403;SDS011;5248;47.374;8.486;2023-03-15T10:00:24;1.33;;;0.50;;
10403;SDS011;5248;47.374;8.486;2023-03-15T10:02:56;0.60;;;0.40;;
10403;SDS011;5248;47.374;8.486;2023-03-15T10:05:29;0.77;;;0.30;;
10403;SDS011;5248;47.374;8.486;2023-03-15T10:08:01;0.97;;;0.50;;
10403;SDS011;5248;47.374;8.486;2023-03-15T10:10:30;1.07;;;0.50;;
10403;SDS011;5248;47.374;8.486;2023-03-15T10:13:04;0.57;;;0.57;;
10403;SDS011;5248;47.374;8.486;2023-03-15T10:15:38;0.30;;;0.30;;
10403;SDS011;5248;47.374;8.486;2023-03-15T10:18:18;0.20;;;0.20;;
10403;SDS011;5248;47.374;8.486;2023-03-15T10:20:53;0.40;;;0.40;;
10403;SDS011;5248;47.374;8.486;2023-03-15T10:23:25;0.27;;;0.23;;
10403;SDS011;5248;47.374;8.486;2023-03-15T10:25:58;0.60;;;0.40;;
10403;SDS011;5248;47.374;8.486;2023-03-15T10:28:26;1.03;;;0.43;;
10403;SDS011;5248;47.374;8.486;2023-03-15T10:30:55;0.50;;;0.50;;
10403;SDS011;5248;47.374;8.486;2023-03-15T10:33:25;0.47;;;0.23;;
10403;SDS011;5248;47.374;8.486;2023-03-15T10:35:54;0.97;;;0.30;;
10403;SDS011;5248;47.374;8.486;2023-03-15T10:38:21;0.20;;;0.20;;
10403;SDS011;5248;47.374;8.486;2023-03-15T10:40:50;0.40;;;0.30;;
10403;SDS011;5248;47.374;8.486;2023-03-15T10:43:18;0.30;;;0.30;;
10403;SDS011;5248;47.374;8.486;2023-03-15T10:45:46;0.20;;;0.20;;
10403;SDS011;5248;47.374;8.486;2023-03-15T10:48:16;0.27;;;0.27;;
10403;SDS011;5248;47.374;8.486;2023-03-15T10:50:42;0.40;;;0.30;;
10403;SDS011;5248;47.374;8.486;2023-03-15T10:53:10;0.40;;;0.40;;
10403;SDS011;5248;47.374;8.486;2023-03-15T10:55:42;0.70;;;0.43;;
10403;SDS011;5248;47.374;8.486;2023-03-15T10:58:17;0.45;;;0.25;;
10403;SDS011;5248;47.374;8.486;2023-03-15T11:00:48;0.30;;;0.30;;
10403;SDS011;5248;47.374;8.486;2023-03-15T11:03:16;3.30;;;0.38;;
10403;SDS011;5248;47.374;8.486;2023-03-15T11:05:44;1.10;;;0.50;;
10403;SDS011;5248;47.374;8.486;2023-03-15T11:08:12;1.33;;;0.30;;
10403;SDS011;5248;47.374;8.486;2023-03-15T11:10:42;0.40;;;0.40;;
10403;SDS011;5248;47.374;8.486;2023-03-15T11:13:10;1.00;;;0.30;;
10403;SDS011;5248;47.374;8.486;2023-03-15T11:15:38;0.47;;;0.38;;
10403;SDS011;5248;47.374;8.486;2023-03-15T11:18:05;0.30;;;0.30;;
10403;SDS011;5248;47.374;8.486;2023-03-15T11:20:36;1.08;;;0.60;;
10403;SDS011;5248;47.374;8.486;2023-03-15T11:23:07;0.20;;;0.20;;
10403;SDS011;5248;47.374;8.486;2023-03-15T11:25:39;0.98;;;0.57;;
10403;SDS011;5248;47.374;8.486;2023-03-15T11:28:10;0.80;;;0.43;;
10403;SDS011;5248;47.374;8.486;2023-03-15T11:30:42;0.38;;;0.38;;
10403;SDS011;5248;47.374;8.486;2023-03-15T11:33:12;0.65;;;0.57;;
10403;SDS011;5248;47.374;8.486;2023-03-15T11:35:48;0.32;;;0.30;;
10403;SDS011;5248;47.374;8.486;2023-03-15T11:38:17;0.57;;;0.57;;
10403;SDS011;5248;47.374;8.486;2023-03-15T11:40:53;0.40;;;0.40;;
10403;SDS011;5248;47.374;8.486;2023-03-15T11:43:21;0.67;;;0.50;;
10403;SDS011;5248;47.374;8.486;2023-03-15T11:45:50;0.60;;;0.60;;
10403;SDS011;5248;47.374;8.486;2023-03-15T11:48:20;0.47;;;0.40;;
10403;SDS011;5248;47.374;8.486;2023-03-15T11:50:51;0.30;;;0.30;;
10403;SDS011;5248;47.374;8.486;2023-03-15T11:53:18;0.40;;;0.40;;
10403;SDS011;5248;47.374;8.486;2023-03-15T11:55:46;0.60;;;0.60;;
10403;SDS011;5248;47.374;8.486;2023-03-15T11:58:27;0.50;;;0.50;;
10403;SDS011;5248;47.374;8.486;2023-03-15T12:00:59;0.30;;;0.30;;
10403;SDS011;5248;47.374;8.486;2023-03-15T12:03:31;0.80;;;0.60;;
10403;SDS011;5248;47.374;8.486;2023-03-15T12:06:11;0.65;;;0.52;;
10403;SDS011;5248;47.374;8.486;2023-03-15T12:08:41;0.50;;;0.45;;
10403;SDS011;5248;47.374;8.486;2023-03-15T12:11:09;0.30;;;0.30;;
10403;SDS011;5248;47.374;8.486;2023-03-15T12:13:37;0.70;;;0.40;;
10403;SDS011;5248;47.374;8.486;2023-03-15T12:16:18;0.37;;;0.30;;
10403;SDS011;5248;47.374;8.486;2023-03-15T12:18:46;0.30;;;0.30;;
10403;SDS011;5248;47.374;8.486;2023-03-15T12:21:14;0.97;;;0.40;;
10403;SDS011;5248;47.374;8.486;2023-03-15T12:23:44;0.37;;;0.37;;
10403;SDS011;5248;47.374;8.486;2023-03-15T12:26:16;0.40;;;0.40;;
10403;SDS011;5248;47.374;8.486;2023-03-15T12:28:51;4.00;;;3.57;;
10403;SDS011;5248;47.374;8.486;2023-03-15T12:31:30;0.93;;;0.93;;
10403;SDS011;5248;47.374;8.486;2023-03-15T12:34:10;0.73;;;0.47;;
10403;SDS011;5248;47.374;8.486;2023-03-15T12:36:40;0.30;;;0.20;;
10403;SDS011;5248;47.374;8.486;2023-03-15T12:39:19;0.77;;;0.20;;
10403;SDS011;5248;47.374;8.486;2023-03-15T12:41:47;0.20;;;0.20;;
10403;SDS011;5248;47.374;8.486;2023-03-15T12:44:22;0.40;;;0.40;;
10403;SDS011;5248;47.374;8.486;2023-03-15T12:46:57;0.13;;;0.13;;
10403;SDS011;5248;47.374;8.486;2023-03-15T12:49:28;0.30;;;0.30;;
10403;SDS011;5248;47.374;8.486;2023-03-15T12:51:58;0.60;;;0.30;;
10403;SDS011;5248;47.374;8.486;2023-03-15T12:54:29;0.30;;;0.30;;
10403;SDS011;5248;47.374;8.486;2023-03-15T12:56:58;0.40;;;0.40;;
10403;SDS011;5248;47.374;8.486;2023-03-15T12:59:35;0.30;;;0.30;;
10403;SDS011;5248;47.374;8.486;2023-03-15T13:05:00;0.50;;;0.50;;
10403;SDS011;5248;47.374;8.486;2023-03-15T13:07:40;0.50;;;0.37;;
10403;SDS011;5248;47.374;8.486;2023-03-15T13:10:27;0.30;;;0.30;;
10403;SDS011;5248;47.374;8.486;2023-03-15T13:12:59;0.40;;;0.40;;
10403;SDS011;5248;47.374;8.486;2023-03-15T13:15:32;0.53;;;0.43;;
10403;SDS011;5248;47.374;8.486;2023-03-15T13:18:03;0.30;;;0.30;;
10403;SDS011;5248;47.374;8.486;2023-03-15T13:20:45;0.40;;;0.40;;
10403;SDS011;5248;47.374;8.486;2023-03-15T13:23:25;1.93;;;0.37;;
10403;SDS011;5248;47.374;8.486;2023-03-15T13:25:56;0.70;;;0.63;;
10403;SDS011;5248;47.374;8.486;2023-03-15T13:28:30;0.50;;;0.50;;
10403;SDS011;5248;47.374;8.486;2023-03-15T13:31:02;0.70;;;0.70;;
10403;SDS011;5248;47.374;8.486;2023-03-15T13:33:37;0.73;;;0.70;;
10403;SDS011;5248;47.374;8.486;2023-03-15T13:36:04;0.63;;;0.63;;
10403;SDS011;5248;47.374;8.486;2023-03-15T13:38:38;1.33;;;0.30;;
10403;SDS011;5248;47.374;8.486;2023-03-15T13:41:13;0.50;;;0.50;;
10403;SDS011;5248;47.374;8.486;2023-03-15T13:43:41;2.23;;;1.60;;
10403;SDS011;5248;47.374;8.486;2023-03-15T13:46:10;1.50;;;0.50;;
10403;SDS011;5248;47.374;8.486;2023-03-15T13:48:38;0.97;;;0.60;;
10403;SDS011;5248;47.374;8.486;2023-03-15T13:51:06;0.87;;;0.40;;
10403;SDS011;5248;47.374;8.486;2023-03-15T13:53:36;0.83;;;0.50;;
10403;SDS011;5248;47.374;8.486;2023-03-15T13:56:05;0.50;;;0.50;;
10403;SDS011;5248;47.374;8.486;2023-03-15T13:58:32;1.17;;;0.33;;
10403;SDS011;5248;47.374;8.486;2023-03-15T14:01:00;1.43;;;0.30;;
10403;SDS011;5248;47.374;8.486;2023-03-15T14:03:28;0.70;;;0.60;;
10403;SDS011;5248;47.374;8.486;2023-03-15T14:05:55;0.70;;;0.67;;
10403;SDS011;5248;47.374;8.486;2023-03-15T14:08:24;0.33;;;0.30;;
10403;SDS011;5248;47.374;8.486;2023-03-15T14:11:00;0.40;;;0.40;;
10403;SDS011;5248;47.374;8.486;2023-03-15T14:13:29;0.50;;;0.50;;
10403;SDS011;5248;47.374;8.486;2023-03-15T14:15:58;0.50;;;0.50;;
10403;SDS011;5248;47.374;8.486;2023-03-15T14:18:32;1.10;;;0.70;;
10403;SDS011;5248;47.374;8.486;2023-03-15T14:21:00;1.40;;;0.80;;
10403;SDS011;5248;47.374;8.486;2023-03-15T14:23:29;1.17;;;0.60;;
10403;SDS011;5248;47.374;8.486;2023-03-15T14:25:59;0.50;;;0.50;;
10403;SDS011;5248;47.374;8.486;2023-03-15T14:28:30;0.40;;;0.40;;
10403;SDS011;5248;47.374;8.486;2023-03-15T14:30:58;1.27;;;0.67;;
10403;SDS011;5248;47.374;8.486;2023-03-15T14:33:28;0.40;;;0.40;;
10403;SDS011;5248;47.374;8.486;2023-03-15T14:35:58;2.17;;;0.80;;
10403;SDS011;5248;47.374;8.486;2023-03-15T14:38:30;0.33;;;0.33;;
10403;SDS011;5248;47.374;8.486;2023-03-15T14:41:08;0.77;;;0.50;;
10403;SDS011;5248;47.374;8.486;2023-03-15T14:43:44;0.90;;;0.90;;
10403;SDS011;5248;47.374;8.486;2023-03-15T14:46:11;0.80;;;0.70;;
10403;SDS011;5248;47.374;8.486;2023-03-15T14:48:37;0.80;;;0.70;;
10403;SDS011;5248;47.374;8.486;2023-03-15T14:51:06;0.50;;;0.50;;
10403;SDS011;5248;47.374;8.486;2023-03-15T14:53:37;1.27;;;0.70;;
10403;SDS011;5248;47.374;8.486;2023-03-15T14:56:04;2.93;;;0.70;;
10403;SDS011;5248;47.374;8.486;2023-03-15T14:58:31;0.70;;;0.70;;
10403;SDS011;5248;47.374;8.486;2023-03-15T15:00:57;2.03;;;0.80;;
10403;SDS011;5248;47.374;8.486;2023-03-15T15:03:28;1.17;;;0.90;;
10403;SDS011;5248;47.374;8.486;2023-03-15T15:05:57;0.60;;;0.60;;
10403;SDS011;5248;47.374;8.486;2023-03-15T15:08:25;0.80;;;0.47;;
10403;SDS011;5248;47.374;8.486;2023-03-15T15:10:52;0.70;;;0.70;;